sensor_id;sensor_type;location;lat;lon;timestamp;P1;durP1;ratioP1;P2;durP2;ratioP2
25381;SDS011;16307;42.896;20.874;2023-02-03T00:00:42;2.38;;;2.08;;
25381;SDS011;16307;42.896;20.874;2023-02-03T00:03:28;2.28;;;2.03;;
25381;SDS011;16307;42.896;20.874;2023-02-03T00:06:14;3.45;;;2.35;;
25381;SDS011;16307;42.896;20.874;2023-02-03T00:09:00;3.15;;;2.22;;
25381;SDS011;16307;42.896;20.874;2023-02-03T00:11:46;2.40;;;2.05;;
25381;SDS011;16307;42.896;20.874;2023-02-03T00:14:32;2.58;;;1.90;;
25381;SDS011;16307;42.896;20.874;2023-02-03T00:17:18;3.22;;;2.05;;
25381;SDS011;16307;42.896;20.874;2023-02-03T00:20:04;2.28;;;1.77;;
25381;SDS011;16307;42.896;20.874;2023-02-03T00:22:50;1.98;;;1.50;;
25381;SDS011;16307;42.896;20.874;2023-02-03T00:25:38;1.20;;;1.10;;
25381;SDS011;16307;42.896;20.874;2023-02-03T00:28:24;1.10;;;1.00;;
25381;SDS011;16307;42.896;20.874;2023-02-03T00:31:13;3.03;;;1.40;;
25381;SDS011;16307;42.896;20.874;2023-02-03T00:34:03;1.25;;;1.15;;
25381;SDS011;16307;42.896;20.874;2023-02-03T00:36:50;1.48;;;1.20;;
25381;SDS011;16307;42.896;20.874;2023-02-03T00:39:36;1.60;;;1.50;;
25381;SDS011;16307;42.896;20.874;2023-02-03T00:42:22;1.60;;;1.48;;
25381;SDS011;16307;42.896;20.874;2023-02-03T00:45:08;1.20;;;1.10;;
25381;SDS011;16307;42.896;20.874;2023-02-03T00:47:54;1.33;;;1.23;;
25381;SDS011;16307;42.896;20.874;2023-02-03T00:50:40;1.48;;;1.35;;
25381;SDS011;16307;42.896;20.874;2023-02-03T00:53:26;1.30;;;1.08;;
25381;SDS011;16307;42.896;20.874;2023-02-03T00:56:12;0.98;;;0.90;;
25381;SDS011;16307;42.896;20.874;2023-02-03T00:58:58;1.10;;;1.00;;
25381;SDS011;16307;42.896;20.874;2023-02-03T01:01:44;1.00;;;0.90;;
25381;SDS011;16307;42.896;20.874;2023-02-03T01:04:30;1.00;;;1.00;;
25381;SDS011;16307;42.896;20.874;2023-02-03T01:07:16;1.05;;;0.95;;
25381;SDS011;16307;42.896;20.874;2023-02-03T01:10:03;0.80;;;0.80;;
25381;SDS011;16307;42.896;20.874;2023-02-03T01:13:00;1.20;;;0.90;;
25381;SDS011;16307;42.896;20.874;2023-02-03T01:15:46;1.20;;;0.70;;
25381;SDS011;16307;42.896;20.874;2023-02-03T01:18:33;1.35;;;0.95;;
25381;SDS011;16307;42.896;20.874;2023-02-03T01:21:19;1.42;;;1.02;;
25381;SDS011;16307;42.896;20.874;2023-02-03T01:24:08;1.08;;;1.00;;
25381;SDS011;16307;42.896;20.874;2023-02-03T01:26:56;2.13;;;1.13;;
25381;SDS011;16307;42.896;20.874;2023-02-03T01:29:50;1.20;;;1.10;;
25381;SDS011;16307;42.896;20.874;2023-02-03T01:32:37;1.63;;;1.10;;
25381;SDS011;16307;42.896;20.874;2023-02-03T01:35:22;1.38;;;1.10;;
25381;SDS011;16307;42.896;20.874;2023-02-03T01:38:08;1.95;;;1.10;;
25381;SDS011;16307;42.896;20.874;2023-02-03T01:40:55;1.13;;;0.90;;
25381;SDS011;16307;42.896;20.874;2023-02-03T01:43:42;1.65;;;1.17;;
25381;SDS011;16307;42.896;20.874;2023-02-03T01:46:37;2.20;;;1.10;;
25381;SDS011;16307;42.896;20.874;2023-02-03T01:49:28;2.72;;;1.20;;
25381;SDS011;16307;42.896;20.874;2023-02-03T01:52:18;2.33;;;0.90;;
25381;SDS011;16307;42.896;20.874;2023-02-03T01:55:04;1.35;;;1.20;;
25381;SDS011;16307;42.896;20.874;2023-02-03T01:58:15;2.10;;;1.17;;
25381;SDS011;16307;42.896;20.874;2023-02-03T02:01:01;3.10;;;1.15;;
25381;SDS011;16307;42.896;20.874;2023-02-03T02:03:49;2.15;;;1.05;;
25381;SDS011;16307;42.896;20.874;2023-02-03T02:06:38;1.95;;;1.00;;
25381;SDS011;16307;42.896;20.874;2023-02-03T02:09:29;1.55;;;1.02;;
25381;SDS011;16307;42.896;20.874;2023-02-03T02:12:15;2.17;;;1.13;;
25381;SDS011;16307;42.896;20.874;2023-02-03T02:15:01;4.25;;;1.25;;
25381;SDS011;16307;42.896;20.874;2023-02-03T02:21:04;2.50;;;1.25;;
25381;SDS011;16307;42.896;20.874;2023-02-03T02:26:53;2.42;;;1.23;;
25381;SDS011;16307;42.896;20.874;2023-02-03T02:38:33;3.92;;;1.10;;
25381;SDS011;16307;42.896;20.874;2023-02-03T02:41:38;1.73;;;1.00;;
25381;SDS011;16307;42.896;20.874;2023-02-03T02:44:40;2.90;;;1.30;;
25381;SDS011;16307;42.896;20.874;2023-02-03T02:47:30;2.95;;;1.10;;
25381;SDS011;16307;42.896;20.874;2023-02-03T02:50:18;1.90;;;1.15;;
25381;SDS011;16307;42.896;20.874;2023-02-03T02:53:07;2.38;;;1.27;;
25381;SDS011;16307;42.896;20.874;2023-02-03T02:55:55;2.78;;;1.55;;
25381;SDS011;16307;42.896;20.874;2023-02-03T02:58:42;2.42;;;1.00;;
25381;SDS011;16307;42.896;20.874;2023-02-03T03:01:29;1.50;;;1.17;;
25381;SDS011;16307;42.896;20.874;2023-02-03T03:04:16;1.63;;;1.05;;
25381;SDS011;16307;42.896;20.874;2023-02-03T03:07:22;3.30;;;1.25;;
25381;SDS011;16307;42.896;20.874;2023-02-03T03:10:11;2.30;;;1.20;;
25381;SDS011;16307;42.896;20.874;2023-02-03T03:13:00;1.33;;;1.20;;
25381;SDS011;16307;42.896;20.874;2023-02-03T03:15:49;2.30;;;1.20;;
25381;SDS011;16307;42.896;20.874;2023-02-03T03:18:43;4.80;;;1.25;;
25381;SDS011;16307;42.896;20.874;2023-02-03T03:21:38;2.63;;;1.30;;
25381;SDS011;16307;42.896;20.874;2023-02-03T03:24:28;1.20;;;1.00;;
25381;SDS011;16307;42.896;20.874;2023-02-03T03:27:22;1.63;;;1.20;;
25381;SDS011;16307;42.896;20.874;2023-02-03T03:30:52;4.53;;;1.75;;
25381;SDS011;16307;42.896;20.874;2023-02-03T03:33:19;1.73;;;1.40;;
25381;SDS011;16307;42.896;20.874;2023-02-03T03:48:16;1.40;;;1.30;;
25381;SDS011;16307;42.896;20.874;2023-02-03T03:51:11;3.30;;;1.33;;
25381;SDS011;16307;42.896;20.874;2023-02-03T03:54:09;4.20;;;1.33;;
25381;SDS011;16307;42.896;20.874;2023-02-03T03:56:59;3.17;;;1.60;;
25381;SDS011;16307;42.896;20.874;2023-02-03T03:59:49;5.38;;;1.70;;
25381;SDS011;16307;42.896;20.874;2023-02-03T04:02:35;3.83;;;1.40;;
25381;SDS011;16307;42.896;20.874;2023-02-03T04:05:24;3.08;;;1.42;;
25381;SDS011;16307;42.896;20.874;2023-02-03T04:08:10;2.55;;;1.52;;
25381;SDS011;16307;42.896;20.874;2023-02-03T04:10:56;2.85;;;1.42;;
25381;SDS011;16307;42.896;20.874;2023-02-03T04:13:42;2.58;;;1.40;;
25381;SDS011;16307;42.896;20.874;2023-02-03T04:16:28;2.00;;;1.30;;
25381;SDS011;16307;42.896;20.874;2023-02-03T04:19:14;2.50;;;1.40;;
25381;SDS011;16307;42.896;20.874;2023-02-03T04:21:59;2.22;;;1.58;;
25381;SDS011;16307;42.896;20.874;2023-02-03T04:24:45;1.80;;;1.30;;
25381;SDS011;16307;42.896;20.874;2023-02-03T04:27:31;2.88;;;1.77;;
25381;SDS011;16307;42.896;20.874;2023-02-03T04:30:19;2.75;;;1.80;;
25381;SDS011;16307;42.896;20.874;2023-02-03T04:33:05;2.58;;;1.65;;
25381;SDS011;16307;42.896;20.874;2023-02-03T04:35:51;2.78;;;1.55;;
25381;SDS011;16307;42.896;20.874;2023-02-03T04:38:37;5.15;;;2.25;;
25381;SDS011;16307;42.896;20.874;2023-02-03T04:41:23;4.68;;;1.90;;
25381;SDS011;16307;42.896;20.874;2023-02-03T04:44:09;4.63;;;1.90;;
25381;SDS011;16307;42.896;20.874;2023-02-03T04:46:55;5.82;;;1.77;;
25381;SDS011;16307;42.896;20.874;2023-02-03T04:49:41;5.20;;;1.40;;
25381;SDS011;16307;42.896;20.874;2023-02-03T04:52:27;4.30;;;1.75;;
25381;SDS011;16307;42.896;20.874;2023-02-03T04:55:13;4.55;;;2.70;;
25381;SDS011;16307;42.896;20.874;2023-02-03T04:57:59;2.63;;;1.90;;
25381;SDS011;16307;42.896;20.874;2023-02-03T05:00:45;2.28;;;1.90;;
25381;SDS011;16307;42.896;20.874;2023-02-03T05:03:31;5.57;;;2.00;;
25381;SDS011;16307;42.896;20.874;2023-02-03T05:06:21;2.10;;;1.80;;
25381;SDS011;16307;42.896;20.874;2023-02-03T05:09:09;4.22;;;2.10;;
25381;SDS011;16307;42.896;20.874;2023-02-03T05:11:55;3.63;;;1.67;;
25381;SDS011;16307;42.896;20.874;2023-02-03T05:14:40;4.03;;;2.13;;
25381;SDS011;16307;42.896;20.874;2023-02-03T05:17:26;4.65;;;2.15;;
25381;SDS011;16307;42.896;20.874;2023-02-03T05:20:12;4.70;;;2.10;;
25381;SDS011;16307;42.896;20.874;2023-02-03T05:22:58;4.00;;;2.28;;
25381;SDS011;16307;42.896;20.874;2023-02-03T05:25:45;4.93;;;2.15;;
25381;SDS011;16307;42.896;20.874;2023-02-03T05:28:31;6.15;;;2.28;;
25381;SDS011;16307;42.896;20.874;2023-02-03T05:31:17;4.45;;;2.00;;
25381;SDS011;16307;42.896;20.874;2023-02-03T05:34:04;4.82;;;2.42;;
25381;SDS011;16307;42.896;20.874;2023-02-03T05:36:50;11.43;;;3.17;;
25381;SDS011;16307;42.896;20.874;2023-02-03T05:39:36;3.80;;;2.28;;
25381;SDS011;16307;42.896;20.874;2023-02-03T05:42:22;5.30;;;2.47;;
25381;SDS011;16307;42.896;20.874;2023-02-03T05:45:08;4.85;;;2.50;;
25381;SDS011;16307;42.896;20.874;2023-02-03T05:47:54;4.00;;;2.63;;
25381;SDS011;16307;42.896;20.874;2023-02-03T05:50:40;5.28;;;2.83;;
25381;SDS011;16307;42.896;20.874;2023-02-03T05:53:26;8.65;;;3.15;;
25381;SDS011;16307;42.896;20.874;2023-02-03T05:56:13;7.85;;;4.05;;
25381;SDS011;16307;42.896;20.874;2023-02-03T05:58:59;6.32;;;3.85;;
25381;SDS011;16307;42.896;20.874;2023-02-03T06:01:45;9.40;;;4.40;;
25381;SDS011;16307;42.896;20.874;2023-02-03T06:04:31;13.43;;;4.07;;
25381;SDS011;16307;42.896;20.874;2023-02-03T06:07:16;7.18;;;4.10;;
25381;SDS011;16307;42.896;20.874;2023-02-03T06:10:02;13.40;;;6.05;;
25381;SDS011;16307;42.896;20.874;2023-02-03T06:12:49;11.13;;;5.20;;
25381;SDS011;16307;42.896;20.874;2023-02-03T06:15:35;13.55;;;5.70;;
25381;SDS011;16307;42.896;20.874;2023-02-03T06:18:21;9.45;;;4.72;;
25381;SDS011;16307;42.896;20.874;2023-02-03T06:21:08;10.38;;;4.88;;
25381;SDS011;16307;42.896;20.874;2023-02-03T06:23:54;10.25;;;4.97;;
25381;SDS011;16307;42.896;20.874;2023-02-03T06:26:41;9.05;;;5.30;;
25381;SDS011;16307;42.896;20.874;2023-02-03T06:29:27;10.98;;;5.63;;
25381;SDS011;16307;42.896;20.874;2023-02-03T06:32:13;11.25;;;4.63;;
25381;SDS011;16307;42.896;20.874;2023-02-03T06:34:59;8.07;;;4.80;;
25381;SDS011;16307;42.896;20.874;2023-02-03T06:37:45;11.70;;;6.20;;
25381;SDS011;16307;42.896;20.874;2023-02-03T06:40:31;14.20;;;6.95;;
25381;SDS011;16307;42.896;20.874;2023-02-03T06:43:17;11.93;;;5.63;;
25381;SDS011;16307;42.896;20.874;2023-02-03T06:46:03;9.10;;;4.57;;
25381;SDS011;16307;42.896;20.874;2023-02-03T06:48:49;12.55;;;5.40;;
25381;SDS011;16307;42.896;20.874;2023-02-03T06:51:35;12.90;;;5.90;;
25381;SDS011;16307;42.896;20.874;2023-02-03T06:54:21;8.38;;;4.57;;
25381;SDS011;16307;42.896;20.874;2023-02-03T06:57:07;5.78;;;3.58;;
25381;SDS011;16307;42.896;20.874;2023-02-03T06:59:53;12.85;;;4.93;;
25381;SDS011;16307;42.896;20.874;2023-02-03T07:02:39;15.85;;;5.53;;
25381;SDS011;16307;42.896;20.874;2023-02-03T07:05:25;16.45;;;7.13;;
25381;SDS011;16307;42.896;20.874;2023-02-03T07:08:12;18.48;;;10.25;;
25381;SDS011;16307;42.896;20.874;2023-02-03T07:10:58;28.38;;;13.40;;
25381;SDS011;16307;42.896;20.874;2023-02-03T07:13:44;17.17;;;8.57;;
25381;SDS011;16307;42.896;20.874;2023-02-03T07:16:30;12.00;;;5.20;;
25381;SDS011;16307;42.896;20.874;2023-02-03T07:19:18;10.57;;;5.20;;
25381;SDS011;16307;42.896;20.874;2023-02-03T07:22:04;11.38;;;6.00;;
25381;SDS011;16307;42.896;20.874;2023-02-03T07:24:50;7.65;;;5.03;;
25381;SDS011;16307;42.896;20.874;2023-02-03T07:27:36;8.60;;;4.82;;
25381;SDS011;16307;42.896;20.874;2023-02-03T07:30:22;8.43;;;5.38;;
25381;SDS011;16307;42.896;20.874;2023-02-03T07:33:08;8.77;;;4.55;;
25381;SDS011;16307;42.896;20.874;2023-02-03T07:35:54;10.73;;;5.20;;
25381;SDS011;16307;42.896;20.874;2023-02-03T07:38:41;11.40;;;6.40;;
25381;SDS011;16307;42.896;20.874;2023-02-03T07:41:27;7.85;;;4.50;;
25381;SDS011;16307;42.896;20.874;2023-02-03T07:44:13;11.05;;;5.55;;
25381;SDS011;16307;42.896;20.874;2023-02-03T07:46:58;12.82;;;6.85;;
25381;SDS011;16307;42.896;20.874;2023-02-03T07:49:45;17.60;;;7.70;;
25381;SDS011;16307;42.896;20.874;2023-02-03T07:52:30;13.57;;;7.20;;
25381;SDS011;16307;42.896;20.874;2023-02-03T07:55:16;10.15;;;6.47;;
25381;SDS011;16307;42.896;20.874;2023-02-03T07:58:03;12.85;;;6.70;;
25381;SDS011;16307;42.896;20.874;2023-02-03T08:00:49;13.02;;;7.18;;
25381;SDS011;16307;42.896;20.874;2023-02-03T08:03:34;14.23;;;6.38;;
25381;SDS011;16307;42.896;20.874;2023-02-03T08:06:20;9.75;;;5.45;;
25381;SDS011;16307;42.896;20.874;2023-02-03T08:09:07;12.68;;;5.57;;
25381;SDS011;16307;42.896;20.874;2023-02-03T08:11:53;9.18;;;5.32;;
25381;SDS011;16307;42.896;20.874;2023-02-03T08:14:39;7.85;;;4.63;;
25381;SDS011;16307;42.896;20.874;2023-02-03T08:17:25;9.05;;;4.25;;
25381;SDS011;16307;42.896;20.874;2023-02-03T08:20:11;7.32;;;3.92;;
25381;SDS011;16307;42.896;20.874;2023-02-03T08:22:57;10.48;;;4.80;;
25381;SDS011;16307;42.896;20.874;2023-02-03T08:25:43;27.30;;;12.02;;
25381;SDS011;16307;42.896;20.874;2023-02-03T08:28:29;15.98;;;6.57;;
25381;SDS011;16307;42.896;20.874;2023-02-03T08:31:15;10.63;;;5.00;;
25381;SDS011;16307;42.896;20.874;2023-02-03T08:34:01;10.48;;;5.18;;
25381;SDS011;16307;42.896;20.874;2023-02-03T08:36:47;13.27;;;7.05;;
25381;SDS011;16307;42.896;20.874;2023-02-03T08:39:33;7.20;;;3.67;;
25381;SDS011;16307;42.896;20.874;2023-02-03T08:42:19;5.50;;;3.05;;
25381;SDS011;16307;42.896;20.874;2023-02-03T08:45:05;3.50;;;2.70;;
25381;SDS011;16307;42.896;20.874;2023-02-03T08:47:52;4.97;;;3.05;;
25381;SDS011;16307;42.896;20.874;2023-02-03T08:50:40;6.68;;;3.20;;
25381;SDS011;16307;42.896;20.874;2023-02-03T08:53:27;5.93;;;2.45;;
25381;SDS011;16307;42.896;20.874;2023-02-03T08:56:13;2.97;;;2.20;;
25381;SDS011;16307;42.896;20.874;2023-02-03T08:58:59;6.05;;;3.20;;
25381;SDS011;16307;42.896;20.874;2023-02-03T09:01:45;6.25;;;3.70;;
25381;SDS011;16307;42.896;20.874;2023-02-03T09:04:33;5.70;;;2.45;;
25381;SDS011;16307;42.896;20.874;2023-02-03T09:07:19;4.13;;;2.35;;
25381;SDS011;16307;42.896;20.874;2023-02-03T09:10:05;4.38;;;2.15;;
25381;SDS011;16307;42.896;20.874;2023-02-03T09:12:51;3.50;;;2.40;;
25381;SDS011;16307;42.896;20.874;2023-02-03T09:15:37;4.82;;;2.70;;
25381;SDS011;16307;42.896;20.874;2023-02-03T09:18:23;9.77;;;4.43;;
25381;SDS011;16307;42.896;20.874;2023-02-03T09:21:10;6.75;;;2.92;;
25381;SDS011;16307;42.896;20.874;2023-02-03T09:24:03;4.55;;;2.47;;
25381;SDS011;16307;42.896;20.874;2023-02-03T09:26:49;3.22;;;1.88;;
25381;SDS011;16307;42.896;20.874;2023-02-03T09:29:35;3.17;;;2.00;;
25381;SDS011;16307;42.896;20.874;2023-02-03T09:32:21;4.72;;;2.20;;
25381;SDS011;16307;42.896;20.874;2023-02-03T09:35:07;7.10;;;3.15;;
25381;SDS011;16307;42.896;20.874;2023-02-03T09:37:53;5.45;;;3.05;;
25381;SDS011;16307;42.896;20.874;2023-02-03T09:40:39;4.45;;;2.47;;
25381;SDS011;16307;42.896;20.874;2023-02-03T09:43:29;3.85;;;2.20;;
25381;SDS011;16307;42.896;20.874;2023-02-03T09:46:23;3.50;;;2.30;;
25381;SDS011;16307;42.896;20.874;2023-02-03T09:49:16;3.70;;;2.10;;
25381;SDS011;16307;42.896;20.874;2023-02-03T09:52:19;7.60;;;2.58;;
25381;SDS011;16307;42.896;20.874;2023-02-03T10:00:50;3.85;;;2.00;;
25381;SDS011;16307;42.896;20.874;2023-02-03T10:04:41;4.72;;;2.67;;
25381;SDS011;16307;42.896;20.874;2023-02-03T10:07:27;5.32;;;2.92;;
25381;SDS011;16307;42.896;20.874;2023-02-03T10:13:30;5.32;;;2.80;;
25381;SDS011;16307;42.896;20.874;2023-02-03T10:16:28;6.50;;;2.80;;
25381;SDS011;16307;42.896;20.874;2023-02-03T10:19:47;2.35;;;1.40;;
25381;SDS011;16307;42.896;20.874;2023-02-03T10:22:42;1.73;;;1.20;;
25381;SDS011;16307;42.896;20.874;2023-02-03T10:28:31;5.97;;;2.60;;
25381;SDS011;16307;42.896;20.874;2023-02-03T10:31:24;3.88;;;2.10;;
25381;SDS011;16307;42.896;20.874;2023-02-03T10:34:13;2.70;;;2.03;;
25381;SDS011;16307;42.896;20.874;2023-02-03T10:37:11;4.60;;;2.35;;
25381;SDS011;16307;42.896;20.874;2023-02-03T10:40:19;3.30;;;1.85;;
25381;SDS011;16307;42.896;20.874;2023-02-03T10:43:08;3.40;;;1.98;;
25381;SDS011;16307;42.896;20.874;2023-02-03T10:46:14;5.57;;;2.40;;
25381;SDS011;16307;42.896;20.874;2023-02-03T10:49:00;6.85;;;3.05;;
25381;SDS011;16307;42.896;20.874;2023-02-03T10:51:50;6.68;;;3.03;;
25381;SDS011;16307;42.896;20.874;2023-02-03T10:54:37;6.20;;;2.88;;
25381;SDS011;16307;42.896;20.874;2023-02-03T10:57:23;7.00;;;3.28;;
25381;SDS011;16307;42.896;20.874;2023-02-03T11:03:07;3.55;;;1.88;;
25381;SDS011;16307;42.896;20.874;2023-02-03T11:06:03;6.05;;;2.63;;
25381;SDS011;16307;42.896;20.874;2023-02-03T11:08:51;4.80;;;2.30;;
25381;SDS011;16307;42.896;20.874;2023-02-03T11:11:37;4.85;;;2.55;;
25381;SDS011;16307;42.896;20.874;2023-02-03T11:14:26;3.70;;;1.98;;
25381;SDS011;16307;42.896;20.874;2023-02-03T11:17:25;3.88;;;1.90;;
25381;SDS011;16307;42.896;20.874;2023-02-03T11:20:13;2.63;;;1.50;;
25381;SDS011;16307;42.896;20.874;2023-02-03T11:23:00;3.88;;;1.75;;
25381;SDS011;16307;42.896;20.874;2023-02-03T11:25:48;2.75;;;1.52;;
25381;SDS011;16307;42.896;20.874;2023-02-03T11:28:33;5.38;;;1.38;;
25381;SDS011;16307;42.896;20.874;2023-02-03T11:31:22;4.90;;;2.00;;
25381;SDS011;16307;42.896;20.874;2023-02-03T11:34:17;5.63;;;2.17;;
25381;SDS011;16307;42.896;20.874;2023-02-03T11:43:16;4.30;;;2.30;;
25381;SDS011;16307;42.896;20.874;2023-02-03T11:46:03;2.75;;;1.60;;
25381;SDS011;16307;42.896;20.874;2023-02-03T11:48:59;4.82;;;2.03;;
25381;SDS011;16307;42.896;20.874;2023-02-03T11:52:15;3.67;;;1.60;;
25381;SDS011;16307;42.896;20.874;2023-02-03T11:55:24;0.90;;;0.80;;
25381;SDS011;16307;42.896;20.874;2023-02-03T12:05:05;2.63;;;2.10;;
25381;SDS011;16307;42.896;20.874;2023-02-03T12:27:24;4.38;;;1.50;;
25381;SDS011;16307;42.896;20.874;2023-02-03T12:30:23;3.00;;;1.88;;
25381;SDS011;16307;42.896;20.874;2023-02-03T12:33:21;4.00;;;2.17;;
25381;SDS011;16307;42.896;20.874;2023-02-03T12:39:10;3.72;;;1.80;;
25381;SDS011;16307;42.896;20.874;2023-02-03T12:45:13;5.03;;;1.95;;
25381;SDS011;16307;42.896;20.874;2023-02-03T12:48:05;8.30;;;2.88;;
25381;SDS011;16307;42.896;20.874;2023-02-03T12:50:59;3.20;;;1.98;;
25381;SDS011;16307;42.896;20.874;2023-02-03T12:53:50;6.55;;;1.80;;
25381;SDS011;16307;42.896;20.874;2023-02-03T12:56:39;3.83;;;1.30;;
25381;SDS011;16307;42.896;20.874;2023-02-03T12:59:27;1.60;;;1.23;;
25381;SDS011;16307;42.896;20.874;2023-02-03T13:02:17;3.50;;;1.30;;
25381;SDS011;16307;42.896;20.874;2023-02-03T13:05:12;1.95;;;1.13;;
25381;SDS011;16307;42.896;20.874;2023-02-03T13:11:25;1.08;;;0.98;;
25381;SDS011;16307;42.896;20.874;2023-02-03T13:17:42;2.40;;;1.10;;
25381;SDS011;16307;42.896;20.874;2023-02-03T13:20:44;1.75;;;1.23;;
25381;SDS011;16307;42.896;20.874;2023-02-03T13:23:30;1.75;;;1.20;;
25381;SDS011;16307;42.896;20.874;2023-02-03T13:29:22;4.03;;;1.70;;
25381;SDS011;16307;42.896;20.874;2023-02-03T13:33:04;3.70;;;2.20;;
25381;SDS011;16307;42.896;20.874;2023-02-03T13:42:06;1.58;;;1.08;;
25381;SDS011;16307;42.896;20.874;2023-02-03T13:45:02;2.22;;;1.10;;
25381;SDS011;16307;42.896;20.874;2023-02-03T13:47:55;7.05;;;3.35;;
25381;SDS011;16307;42.896;20.874;2023-02-03T13:50:44;7.45;;;1.80;;
25381;SDS011;16307;42.896;20.874;2023-02-03T13:53:35;3.42;;;1.58;;
25381;SDS011;16307;42.896;20.874;2023-02-03T13:56:23;2.58;;;1.67;;
25381;SDS011;16307;42.896;20.874;2023-02-03T14:02:45;3.38;;;1.48;;
25381;SDS011;16307;42.896;20.874;2023-02-03T14:05:37;2.22;;;1.20;;
25381;SDS011;16307;42.896;20.874;2023-02-03T14:08:49;4.57;;;1.90;;
25381;SDS011;16307;42.896;20.874;2023-02-03T14:11:38;2.53;;;1.55;;
25381;SDS011;16307;42.896;20.874;2023-02-03T14:23:19;9.98;;;3.40;;
25381;SDS011;16307;42.896;20.874;2023-02-03T14:26:13;9.10;;;3.13;;
25381;SDS011;16307;42.896;20.874;2023-02-03T14:29:03;8.18;;;2.58;;
25381;SDS011;16307;42.896;20.874;2023-02-03T14:31:51;13.63;;;4.28;;
25381;SDS011;16307;42.896;20.874;2023-02-03T14:34:47;13.73;;;6.40;;
25381;SDS011;16307;42.896;20.874;2023-02-03T14:37:34;11.30;;;4.45;;
25381;SDS011;16307;42.896;20.874;2023-02-03T14:43:34;8.73;;;4.10;;
25381;SDS011;16307;42.896;20.874;2023-02-03T14:58:25;9.85;;;4.15;;
25381;SDS011;16307;42.896;20.874;2023-02-03T15:04:32;15.30;;;6.50;;
25381;SDS011;16307;42.896;20.874;2023-02-03T15:16:12;24.10;;;10.43;;
25381;SDS011;16307;42.896;20.874;2023-02-03T15:19:00;15.05;;;6.63;;
25381;SDS011;16307;42.896;20.874;2023-02-03T15:24:39;17.00;;;6.88;;
25381;SDS011;16307;42.896;20.874;2023-02-03T15:27:26;13.75;;;5.70;;
25381;SDS011;16307;42.896;20.874;2023-02-03T15:30:17;13.45;;;4.60;;
25381;SDS011;16307;42.896;20.874;2023-02-03T15:33:12;13.32;;;6.55;;
25381;SDS011;16307;42.896;20.874;2023-02-03T15:36:04;20.42;;;7.22;;
25381;SDS011;16307;42.896;20.874;2023-02-03T15:39:07;21.90;;;7.95;;
25381;SDS011;16307;42.896;20.874;2023-02-03T15:42:06;17.73;;;6.40;;
25381;SDS011;16307;42.896;20.874;2023-02-03T15:45:04;18.00;;;5.63;;
25381;SDS011;16307;42.896;20.874;2023-02-03T15:48:28;17.00;;;5.90;;
25381;SDS011;16307;42.896;20.874;2023-02-03T15:54:31;8.55;;;3.00;;
25381;SDS011;16307;42.896;20.874;2023-02-03T15:57:29;5.25;;;2.78;;
25381;SDS011;16307;42.896;20.874;2023-02-03T16:03:17;10.20;;;3.97;;
25381;SDS011;16307;42.896;20.874;2023-02-03T16:06:07;8.82;;;3.03;;
25381;SDS011;16307;42.896;20.874;2023-02-03T16:09:27;13.90;;;3.72;;
25381;SDS011;16307;42.896;20.874;2023-02-03T16:12:24;12.15;;;4.53;;
25381;SDS011;16307;42.896;20.874;2023-02-03T16:15:21;7.53;;;3.35;;
25381;SDS011;16307;42.896;20.874;2023-02-03T16:18:15;9.50;;;4.40;;
25381;SDS011;16307;42.896;20.874;2023-02-03T16:23:49;7.65;;;3.30;;
25381;SDS011;16307;42.896;20.874;2023-02-03T16:26:35;8.25;;;4.00;;
25381;SDS011;16307;42.896;20.874;2023-02-03T16:29:27;16.63;;;3.90;;
25381;SDS011;16307;42.896;20.874;2023-02-03T16:32:32;13.65;;;4.68;;
25381;SDS011;16307;42.896;20.874;2023-02-03T16:35:36;15.23;;;6.70;;
25381;SDS011;16307;42.896;20.874;2023-02-03T16:38:48;15.27;;;5.72;;
25381;SDS011;16307;42.896;20.874;2023-02-03T16:41:53;17.98;;;6.63;;
25381;SDS011;16307;42.896;20.874;2023-02-03T16:44:57;18.05;;;7.82;;
25381;SDS011;16307;42.896;20.874;2023-02-03T16:48:02;26.40;;;7.10;;
25381;SDS011;16307;42.896;20.874;2023-02-03T16:51:12;22.25;;;6.43;;
25381;SDS011;16307;42.896;20.874;2023-02-03T16:54:02;10.60;;;5.10;;
25381;SDS011;16307;42.896;20.874;2023-02-03T16:56:49;19.90;;;7.68;;
25381;SDS011;16307;42.896;20.874;2023-02-03T16:59:36;13.57;;;6.40;;
25381;SDS011;16307;42.896;20.874;2023-02-03T17:02:22;12.85;;;6.10;;
25381;SDS011;16307;42.896;20.874;2023-02-03T17:05:08;12.93;;;7.68;;
25381;SDS011;16307;42.896;20.874;2023-02-03T17:07:54;14.70;;;7.22;;
25381;SDS011;16307;42.896;20.874;2023-02-03T17:10:40;16.40;;;8.02;;
25381;SDS011;16307;42.896;20.874;2023-02-03T17:13:27;12.88;;;6.28;;
25381;SDS011;16307;42.896;20.874;2023-02-03T17:16:14;8.85;;;4.20;;
25381;SDS011;16307;42.896;20.874;2023-02-03T17:19:02;16.15;;;8.77;;
25381;SDS011;16307;42.896;20.874;2023-02-03T17:21:48;22.63;;;10.43;;
25381;SDS011;16307;42.896;20.874;2023-02-03T17:24:34;25.05;;;11.35;;
25381;SDS011;16307;42.896;20.874;2023-02-03T17:27:20;32.05;;;14.82;;
25381;SDS011;16307;42.896;20.874;2023-02-03T17:30:06;44.25;;;19.50;;
25381;SDS011;16307;42.896;20.874;2023-02-03T17:32:52;40.63;;;18.40;;
25381;SDS011;16307;42.896;20.874;2023-02-03T17:35:39;51.72;;;20.20;;
25381;SDS011;16307;42.896;20.874;2023-02-03T17:38:26;63.10;;;24.58;;
25381;SDS011;16307;42.896;20.874;2023-02-03T17:41:14;66.35;;;26.88;;
25381;SDS011;16307;42.896;20.874;2023-02-03T17:44:18;63.88;;;28.20;;
25381;SDS011;16307;42.896;20.874;2023-02-03T17:47:22;65.40;;;27.75;;
25381;SDS011;16307;42.896;20.874;2023-02-03T17:50:25;54.55;;;24.27;;
25381;SDS011;16307;42.896;20.874;2023-02-03T17:53:29;53.88;;;22.92;;
25381;SDS011;16307;42.896;20.874;2023-02-03T17:59:04;53.38;;;24.65;;
25381;SDS011;16307;42.896;20.874;2023-02-03T18:01:51;65.78;;;26.50;;
25381;SDS011;16307;42.896;20.874;2023-02-03T18:04:37;49.45;;;24.58;;
25381;SDS011;16307;42.896;20.874;2023-02-03T18:07:23;48.10;;;20.67;;
25381;SDS011;16307;42.896;20.874;2023-02-03T18:10:09;41.78;;;19.10;;
25381;SDS011;16307;42.896;20.874;2023-02-03T18:12:55;44.67;;;16.80;;
25381;SDS011;16307;42.896;20.874;2023-02-03T18:15:41;36.17;;;16.65;;
25381;SDS011;16307;42.896;20.874;2023-02-03T18:18:27;37.83;;;13.85;;
25381;SDS011;16307;42.896;20.874;2023-02-03T18:21:14;31.48;;;11.52;;
25381;SDS011;16307;42.896;20.874;2023-02-03T18:24:02;30.38;;;14.90;;
25381;SDS011;16307;42.896;20.874;2023-02-03T18:26:50;33.78;;;15.55;;
25381;SDS011;16307;42.896;20.874;2023-02-03T18:29:36;33.28;;;15.88;;
25381;SDS011;16307;42.896;20.874;2023-02-03T18:32:25;31.77;;;15.00;;
25381;SDS011;16307;42.896;20.874;2023-02-03T18:35:11;42.83;;;18.95;;
25381;SDS011;16307;42.896;20.874;2023-02-03T18:38:01;61.20;;;28.70;;
25381;SDS011;16307;42.896;20.874;2023-02-03T18:40:47;62.65;;;26.55;;
25381;SDS011;16307;42.896;20.874;2023-02-03T18:43:33;47.85;;;22.33;;
25381;SDS011;16307;42.896;20.874;2023-02-03T18:46:23;48.03;;;19.75;;
25381;SDS011;16307;42.896;20.874;2023-02-03T18:49:11;54.33;;;25.05;;
25381;SDS011;16307;42.896;20.874;2023-02-03T18:51:58;45.85;;;22.75;;
25381;SDS011;16307;42.896;20.874;2023-02-03T18:54:44;46.83;;;19.88;;
25381;SDS011;16307;42.896;20.874;2023-02-03T18:57:29;36.53;;;16.58;;
25381;SDS011;16307;42.896;20.874;2023-02-03T19:00:15;41.90;;;19.33;;
25381;SDS011;16307;42.896;20.874;2023-02-03T19:03:02;37.33;;;17.42;;
25381;SDS011;16307;42.896;20.874;2023-02-03T19:05:48;23.58;;;11.45;;
25381;SDS011;16307;42.896;20.874;2023-02-03T19:08:34;34.17;;;11.48;;
25381;SDS011;16307;42.896;20.874;2023-02-03T19:11:19;21.10;;;8.82;;